sensor_id;sensor_type;location;lat;lon;timestamp;P1;durP1;ratioP1;P2;durP2;ratioP2
22435;SDS011;11385;50.822;4.324;2022-09-17T00:00:37;11.93;;;2.20;;
22435;SDS011;11385;50.822;4.324;2022-09-17T00:03:06;12.53;;;2.05;;
22435;SDS011;11385;50.822;4.324;2022-09-17T00:05:34;11.03;;;2.08;;
22435;SDS011;11385;50.822;4.324;2022-09-17T00:08:03;6.80;;;1.42;;
22435;SDS011;11385;50.822;4.324;2022-09-17T00:10:32;6.10;;;1.37;;
22435;SDS011;11385;50.822;4.324;2022-09-17T00:13:01;5.50;;;1.27;;
22435;SDS011;11385;50.822;4.324;2022-09-17T00:15:27;7.53;;;1.40;;
22435;SDS011;11385;50.822;4.324;2022-09-17T00:17:54;16.30;;;7.05;;
22435;SDS011;11385;50.822;4.324;2022-09-17T00:20:24;14.87;;;3.42;;
22435;SDS011;11385;50.822;4.324;2022-09-17T00:22:51;13.13;;;2.20;;
22435;SDS011;11385;50.822;4.324;2022-09-17T00:25:19;11.08;;;1.40;;
22435;SDS011;11385;50.822;4.324;2022-09-17T00:27:46;8.70;;;1.60;;
22435;SDS011;11385;50.822;4.324;2022-09-17T00:30:12;10.03;;;1.20;;
22435;SDS011;11385;50.822;4.324;2022-09-17T00:32:39;9.88;;;1.67;;
22435;SDS011;11385;50.822;4.324;2022-09-17T00:35:06;8.13;;;1.40;;
22435;SDS011;11385;50.822;4.324;2022-09-17T00:37:33;7.95;;;1.30;;
22435;SDS011;11385;50.822;4.324;2022-09-17T00:39:59;8.20;;;1.40;;
22435;SDS011;11385;50.822;4.324;2022-09-17T00:42:26;5.60;;;1.20;;
22435;SDS011;11385;50.822;4.324;2022-09-17T00:44:53;9.93;;;1.50;;
22435;SDS011;11385;50.822;4.324;2022-09-17T00:50:01;10.23;;;1.50;;
22435;SDS011;11385;50.822;4.324;2022-09-17T00:52:33;8.58;;;1.25;;
22435;SDS011;11385;50.822;4.324;2022-09-17T00:55:06;9.10;;;1.87;;
22435;SDS011;11385;50.822;4.324;2022-09-17T00:57:38;5.17;;;1.10;;
22435;SDS011;11385;50.822;4.324;2022-09-17T01:00:06;4.03;;;0.90;;
22435;SDS011;11385;50.822;4.324;2022-09-17T01:02:34;7.30;;;1.52;;
22435;SDS011;11385;50.822;4.324;2022-09-17T01:05:01;8.98;;;1.45;;
22435;SDS011;11385;50.822;4.324;2022-09-17T01:07:33;7.75;;;1.60;;
22435;SDS011;11385;50.822;4.324;2022-09-17T01:10:10;6.97;;;1.37;;
22435;SDS011;11385;50.822;4.324;2022-09-17T01:12:46;7.28;;;0.95;;
22435;SDS011;11385;50.822;4.324;2022-09-17T01:15:20;7.95;;;1.40;;
22435;SDS011;11385;50.822;4.324;2022-09-17T01:18:59;6.87;;;1.10;;
22435;SDS011;11385;50.822;4.324;2022-09-17T01:28:51;14.75;;;1.77;;
22435;SDS011;11385;50.822;4.324;2022-09-17T01:34:17;8.30;;;1.00;;
22435;SDS011;11385;50.822;4.324;2022-09-17T01:36:47;8.60;;;1.20;;
22435;SDS011;11385;50.822;4.324;2022-09-17T01:39:27;8.88;;;1.12;;
22435;SDS011;11385;50.822;4.324;2022-09-17T01:42:03;6.70;;;1.32;;
22435;SDS011;11385;50.822;4.324;2022-09-17T01:44:52;7.50;;;1.22;;
22435;SDS011;11385;50.822;4.324;2022-09-17T01:47:23;7.45;;;1.40;;
22435;SDS011;11385;50.822;4.324;2022-09-17T01:49:56;5.35;;;1.40;;
22435;SDS011;11385;50.822;4.324;2022-09-17T01:52:24;10.17;;;1.50;;
22435;SDS011;11385;50.822;4.324;2022-09-17T01:54:54;11.20;;;1.75;;
22435;SDS011;11385;50.822;4.324;2022-09-17T01:57:27;6.80;;;1.12;;
22435;SDS011;11385;50.822;4.324;2022-09-17T02:00:06;6.03;;;1.15;;
22435;SDS011;11385;50.822;4.324;2022-09-17T02:02:37;7.95;;;1.75;;
22435;SDS011;11385;50.822;4.324;2022-09-17T02:05:09;6.33;;;1.17;;
22435;SDS011;11385;50.822;4.324;2022-09-17T02:10:08;7.62;;;1.00;;
22435;SDS011;11385;50.822;4.324;2022-09-17T02:12:40;5.53;;;1.82;;
22435;SDS011;11385;50.822;4.324;2022-09-17T02:17:39;12.13;;;1.70;;
22435;SDS011;11385;50.822;4.324;2022-09-17T02:20:12;7.62;;;1.27;;
22435;SDS011;11385;50.822;4.324;2022-09-17T02:22:42;11.40;;;2.12;;
22435;SDS011;11385;50.822;4.324;2022-09-17T02:25:17;11.12;;;1.47;;
22435;SDS011;11385;50.822;4.324;2022-09-17T02:27:54;14.58;;;1.92;;
22435;SDS011;11385;50.822;4.324;2022-09-17T02:30:22;10.93;;;1.82;;
22435;SDS011;11385;50.822;4.324;2022-09-17T02:32:49;11.57;;;1.75;;
22435;SDS011;11385;50.822;4.324;2022-09-17T02:35:16;8.35;;;1.70;;
22435;SDS011;11385;50.822;4.324;2022-09-17T02:37:44;12.73;;;2.25;;
22435;SDS011;11385;50.822;4.324;2022-09-17T02:40:11;10.68;;;1.60;;
22435;SDS011;11385;50.822;4.324;2022-09-17T02:42:49;9.25;;;1.50;;
22435;SDS011;11385;50.822;4.324;2022-09-17T02:45:18;12.03;;;1.85;;
22435;SDS011;11385;50.822;4.324;2022-09-17T02:51:52;15.78;;;2.25;;
22435;SDS011;11385;50.822;4.324;2022-09-17T02:53:35;10.32;;;1.60;;
22435;SDS011;11385;50.822;4.324;2022-09-17T02:56:09;11.22;;;1.72;;
22435;SDS011;11385;50.822;4.324;2022-09-17T02:58:40;10.48;;;2.12;;
22435;SDS011;11385;50.822;4.324;2022-09-17T03:01:13;17.23;;;2.30;;
22435;SDS011;11385;50.822;4.324;2022-09-17T03:03:43;8.50;;;1.90;;
22435;SDS011;11385;50.822;4.324;2022-09-17T03:06:14;11.50;;;1.95;;
22435;SDS011;11385;50.822;4.324;2022-09-17T03:08:41;11.63;;;2.33;;
22435;SDS011;11385;50.822;4.324;2022-09-17T03:11:09;13.03;;;1.95;;
22435;SDS011;11385;50.822;4.324;2022-09-17T03:13:37;11.35;;;1.62;;
22435;SDS011;11385;50.822;4.324;2022-09-17T03:16:05;10.08;;;1.35;;
22435;SDS011;11385;50.822;4.324;2022-09-17T03:18:32;10.70;;;2.42;;
22435;SDS011;11385;50.822;4.324;2022-09-17T03:20:59;13.72;;;1.80;;
22435;SDS011;11385;50.822;4.324;2022-09-17T03:23:25;9.85;;;1.50;;
22435;SDS011;11385;50.822;4.324;2022-09-17T03:25:52;9.85;;;1.75;;
22435;SDS011;11385;50.822;4.324;2022-09-17T03:28:20;13.08;;;2.20;;
22435;SDS011;11385;50.822;4.324;2022-09-17T03:30:46;8.85;;;1.42;;
22435;SDS011;11385;50.822;4.324;2022-09-17T03:33:13;15.95;;;2.25;;
22435;SDS011;11385;50.822;4.324;2022-09-17T03:35:43;13.75;;;1.85;;
22435;SDS011;11385;50.822;4.324;2022-09-17T03:38:10;14.58;;;1.92;;
22435;SDS011;11385;50.822;4.324;2022-09-17T03:40:37;13.55;;;2.27;;
22435;SDS011;11385;50.822;4.324;2022-09-17T03:43:05;10.25;;;1.80;;
22435;SDS011;11385;50.822;4.324;2022-09-17T03:45:32;8.60;;;1.70;;
22435;SDS011;11385;50.822;4.324;2022-09-17T03:47:59;11.85;;;2.08;;
22435;SDS011;11385;50.822;4.324;2022-09-17T03:50:26;11.25;;;2.15;;
22435;SDS011;11385;50.822;4.324;2022-09-17T03:52:52;10.80;;;1.65;;
22435;SDS011;11385;50.822;4.324;2022-09-17T03:55:19;13.38;;;1.80;;
22435;SDS011;11385;50.822;4.324;2022-09-17T03:57:45;8.78;;;2.02;;
22435;SDS011;11385;50.822;4.324;2022-09-17T04:00:12;13.30;;;1.90;;
22435;SDS011;11385;50.822;4.324;2022-09-17T04:02:41;11.55;;;2.65;;
22435;SDS011;11385;50.822;4.324;2022-09-17T04:05:08;13.75;;;2.00;;
22435;SDS011;11385;50.822;4.324;2022-09-17T04:07:35;15.93;;;2.42;;
22435;SDS011;11385;50.822;4.324;2022-09-17T04:10:02;13.88;;;1.90;;
22435;SDS011;11385;50.822;4.324;2022-09-17T04:12:29;11.93;;;1.70;;
22435;SDS011;11385;50.822;4.324;2022-09-17T04:14:56;10.58;;;2.00;;
22435;SDS011;11385;50.822;4.324;2022-09-17T04:17:23;11.60;;;2.00;;
22435;SDS011;11385;50.822;4.324;2022-09-17T04:19:50;19.20;;;2.17;;
22435;SDS011;11385;50.822;4.324;2022-09-17T04:22:18;13.28;;;2.00;;
22435;SDS011;11385;50.822;4.324;2022-09-17T04:24:44;11.10;;;1.98;;
22435;SDS011;11385;50.822;4.324;2022-09-17T04:27:11;12.50;;;2.12;;
22435;SDS011;11385;50.822;4.324;2022-09-17T04:29:38;13.25;;;2.10;;
22435;SDS011;11385;50.822;4.324;2022-09-17T04:32:04;9.88;;;1.92;;
22435;SDS011;11385;50.822;4.324;2022-09-17T04:34:31;8.90;;;1.95;;
22435;SDS011;11385;50.822;4.324;2022-09-17T04:36:58;15.68;;;2.50;;
22435;SDS011;11385;50.822;4.324;2022-09-17T04:39:25;15.00;;;2.80;;
22435;SDS011;11385;50.822;4.324;2022-09-17T04:41:51;10.38;;;2.02;;
22435;SDS011;11385;50.822;4.324;2022-09-17T04:44:18;7.60;;;1.90;;
22435;SDS011;11385;50.822;4.324;2022-09-17T04:46:45;11.43;;;1.87;;
22435;SDS011;11385;50.822;4.324;2022-09-17T04:49:11;14.78;;;2.22;;
22435;SDS011;11385;50.822;4.324;2022-09-17T04:51:38;15.53;;;2.65;;
22435;SDS011;11385;50.822;4.324;2022-09-17T04:54:05;15.32;;;2.98;;
22435;SDS011;11385;50.822;4.324;2022-09-17T04:56:31;16.42;;;2.05;;
22435;SDS011;11385;50.822;4.324;2022-09-17T04:58:58;13.93;;;2.15;;
22435;SDS011;11385;50.822;4.324;2022-09-17T05:01:25;15.83;;;2.92;;
22435;SDS011;11385;50.822;4.324;2022-09-17T05:03:52;13.85;;;2.58;;
22435;SDS011;11385;50.822;4.324;2022-09-17T05:06:18;13.20;;;1.72;;
22435;SDS011;11385;50.822;4.324;2022-09-17T05:08:45;14.33;;;3.02;;
22435;SDS011;11385;50.822;4.324;2022-09-17T05:11:12;10.08;;;2.30;;
22435;SDS011;11385;50.822;4.324;2022-09-17T05:13:38;16.52;;;2.00;;
22435;SDS011;11385;50.822;4.324;2022-09-17T05:16:05;11.57;;;2.25;;
22435;SDS011;11385;50.822;4.324;2022-09-17T05:18:32;13.10;;;1.90;;
22435;SDS011;11385;50.822;4.324;2022-09-17T05:20:59;11.03;;;2.60;;
22435;SDS011;11385;50.822;4.324;2022-09-17T05:23:26;15.13;;;2.30;;
22435;SDS011;11385;50.822;4.324;2022-09-17T05:25:56;17.00;;;2.70;;
22435;SDS011;11385;50.822;4.324;2022-09-17T05:28:25;16.95;;;2.70;;
22435;SDS011;11385;50.822;4.324;2022-09-17T05:30:52;13.85;;;2.30;;
22435;SDS011;11385;50.822;4.324;2022-09-17T05:33:19;13.03;;;2.70;;
22435;SDS011;11385;50.822;4.324;2022-09-17T05:35:45;12.10;;;3.10;;
22435;SDS011;11385;50.822;4.324;2022-09-17T05:38:12;13.80;;;2.10;;
22435;SDS011;11385;50.822;4.324;2022-09-17T05:40:39;14.35;;;2.58;;
22435;SDS011;11385;50.822;4.324;2022-09-17T05:43:06;12.25;;;2.22;;
22435;SDS011;11385;50.822;4.324;2022-09-17T05:45:33;21.12;;;3.65;;
22435;SDS011;11385;50.822;4.324;2022-09-17T05:48:01;22.05;;;3.58;;
22435;SDS011;11385;50.822;4.324;2022-09-17T05:50:28;18.85;;;2.70;;
22435;SDS011;11385;50.822;4.324;2022-09-17T05:52:55;26.77;;;3.67;;
22435;SDS011;11385;50.822;4.324;2022-09-17T05:55:22;16.65;;;2.58;;
22435;SDS011;11385;50.822;4.324;2022-09-17T05:57:49;15.32;;;2.22;;
22435;SDS011;11385;50.822;4.324;2022-09-17T06:00:17;13.32;;;2.12;;
22435;SDS011;11385;50.822;4.324;2022-09-17T06:02:43;17.90;;;2.95;;
22435;SDS011;11385;50.822;4.324;2022-09-17T06:05:10;19.57;;;2.67;;
22435;SDS011;11385;50.822;4.324;2022-09-17T06:07:37;16.32;;;2.35;;
22435;SDS011;11385;50.822;4.324;2022-09-17T06:10:04;15.03;;;2.30;;
22435;SDS011;11385;50.822;4.324;2022-09-17T06:12:32;15.00;;;2.58;;
22435;SDS011;11385;50.822;4.324;2022-09-17T06:15:00;11.10;;;2.22;;
22435;SDS011;11385;50.822;4.324;2022-09-17T06:17:27;9.45;;;2.12;;
22435;SDS011;11385;50.822;4.324;2022-09-17T06:19:56;14.58;;;2.15;;
22435;SDS011;11385;50.822;4.324;2022-09-17T06:22:23;10.68;;;2.35;;
22435;SDS011;11385;50.822;4.324;2022-09-17T06:24:50;15.38;;;2.87;;
22435;SDS011;11385;50.822;4.324;2022-09-17T06:27:17;14.40;;;2.65;;
22435;SDS011;11385;50.822;4.324;2022-09-17T06:29:43;16.95;;;2.60;;
22435;SDS011;11385;50.822;4.324;2022-09-17T06:32:10;10.13;;;2.10;;
22435;SDS011;11385;50.822;4.324;2022-09-17T06:34:38;14.65;;;2.47;;
22435;SDS011;11385;50.822;4.324;2022-09-17T06:37:05;11.63;;;2.47;;
22435;SDS011;11385;50.822;4.324;2022-09-17T06:39:33;12.95;;;2.10;;
22435;SDS011;11385;50.822;4.324;2022-09-17T06:42:00;18.75;;;2.58;;
22435;SDS011;11385;50.822;4.324;2022-09-17T06:44:26;13.75;;;2.02;;
22435;SDS011;11385;50.822;4.324;2022-09-17T06:46:53;11.18;;;1.92;;
22435;SDS011;11385;50.822;4.324;2022-09-17T06:49:20;17.15;;;2.27;;
22435;SDS011;11385;50.822;4.324;2022-09-17T06:51:47;17.62;;;2.83;;
22435;SDS011;11385;50.822;4.324;2022-09-17T06:54:13;10.70;;;1.82;;
22435;SDS011;11385;50.822;4.324;2022-09-17T06:56:40;14.00;;;2.15;;
22435;SDS011;11385;50.822;4.324;2022-09-17T06:59:06;13.60;;;2.12;;
22435;SDS011;11385;50.822;4.324;2022-09-17T07:01:33;9.20;;;2.10;;
22435;SDS011;11385;50.822;4.324;2022-09-17T07:04:00;17.95;;;2.40;;
22435;SDS011;11385;50.822;4.324;2022-09-17T07:06:27;13.85;;;2.30;;
22435;SDS011;11385;50.822;4.324;2022-09-17T07:08:54;13.68;;;3.08;;
22435;SDS011;11385;50.822;4.324;2022-09-17T07:11:20;15.48;;;2.30;;
22435;SDS011;11385;50.822;4.324;2022-09-17T07:13:47;16.00;;;2.50;;
22435;SDS011;11385;50.822;4.324;2022-09-17T07:16:14;10.10;;;1.42;;
22435;SDS011;11385;50.822;4.324;2022-09-17T07:18:40;13.72;;;2.72;;
22435;SDS011;11385;50.822;4.324;2022-09-17T07:21:08;9.13;;;2.00;;
22435;SDS011;11385;50.822;4.324;2022-09-17T07:23:35;15.43;;;2.35;;
22435;SDS011;11385;50.822;4.324;2022-09-17T07:26:04;8.73;;;1.62;;
22435;SDS011;11385;50.822;4.324;2022-09-17T07:28:33;14.38;;;1.98;;
22435;SDS011;11385;50.822;4.324;2022-09-17T07:31:01;12.85;;;1.65;;
22435;SDS011;11385;50.822;4.324;2022-09-17T07:33:30;10.35;;;1.85;;
22435;SDS011;11385;50.822;4.324;2022-09-17T07:35:58;8.85;;;1.85;;
22435;SDS011;11385;50.822;4.324;2022-09-17T07:38:27;9.60;;;1.75;;
22435;SDS011;11385;50.822;4.324;2022-09-17T07:40:55;10.05;;;3.35;;
22435;SDS011;11385;50.822;4.324;2022-09-17T07:43:29;11.08;;;1.92;;
22435;SDS011;11385;50.822;4.324;2022-09-17T07:45:59;10.90;;;2.15;;
22435;SDS011;11385;50.822;4.324;2022-09-17T07:48:27;9.70;;;1.90;;
22435;SDS011;11385;50.822;4.324;2022-09-17T07:50:55;12.37;;;2.70;;
22435;SDS011;11385;50.822;4.324;2022-09-17T07:53:22;13.18;;;1.60;;
22435;SDS011;11385;50.822;4.324;2022-09-17T07:55:51;11.45;;;1.90;;
22435;SDS011;11385;50.822;4.324;2022-09-17T07:58:20;8.15;;;1.82;;
22435;SDS011;11385;50.822;4.324;2022-09-17T08:00:49;11.95;;;2.00;;
22435;SDS011;11385;50.822;4.324;2022-09-17T08:03:16;7.25;;;1.35;;
22435;SDS011;11385;50.822;4.324;2022-09-17T08:05:42;8.78;;;1.27;;
22435;SDS011;11385;50.822;4.324;2022-09-17T08:08:09;8.25;;;1.37;;
22435;SDS011;11385;50.822;4.324;2022-09-17T08:10:36;7.42;;;2.02;;
22435;SDS011;11385;50.822;4.324;2022-09-17T08:13:02;8.38;;;1.47;;
22435;SDS011;11385;50.822;4.324;2022-09-17T08:15:29;11.05;;;1.52;;
22435;SDS011;11385;50.822;4.324;2022-09-17T08:17:56;11.33;;;1.80;;
22435;SDS011;11385;50.822;4.324;2022-09-17T08:20:22;12.55;;;2.05;;
22435;SDS011;11385;50.822;4.324;2022-09-17T08:22:56;11.88;;;2.00;;
22435;SDS011;11385;50.822;4.324;2022-09-17T08:25:24;11.08;;;1.77;;
22435;SDS011;11385;50.822;4.324;2022-09-17T08:27:52;7.62;;;1.32;;
22435;SDS011;11385;50.822;4.324;2022-09-17T08:30:21;14.10;;;1.98;;
22435;SDS011;11385;50.822;4.324;2022-09-17T08:32:48;9.35;;;1.50;;
22435;SDS011;11385;50.822;4.324;2022-09-17T08:35:15;8.70;;;1.70;;
22435;SDS011;11385;50.822;4.324;2022-09-17T08:37:42;6.60;;;1.47;;
22435;SDS011;11385;50.822;4.324;2022-09-17T08:40:12;12.43;;;1.75;;
22435;SDS011;11385;50.822;4.324;2022-09-17T08:42:48;8.63;;;1.42;;
22435;SDS011;11385;50.822;4.324;2022-09-17T08:45:18;6.87;;;1.10;;
22435;SDS011;11385;50.822;4.324;2022-09-17T08:47:47;10.35;;;1.05;;
22435;SDS011;11385;50.822;4.324;2022-09-17T08:50:17;8.73;;;1.37;;
22435;SDS011;11385;50.822;4.324;2022-09-17T08:52:57;11.15;;;1.30;;
22435;SDS011;11385;50.822;4.324;2022-09-17T08:55:36;6.67;;;1.00;;
22435;SDS011;11385;50.822;4.324;2022-09-17T09:01:20;9.05;;;1.20;;
22435;SDS011;11385;50.822;4.324;2022-09-17T09:03:57;10.72;;;1.55;;
22435;SDS011;11385;50.822;4.324;2022-09-17T09:06:28;7.33;;;1.67;;
22435;SDS011;11385;50.822;4.324;2022-09-17T09:09:00;9.08;;;1.25;;
22435;SDS011;11385;50.822;4.324;2022-09-17T09:16:33;6.55;;;1.47;;
22435;SDS011;11385;50.822;4.324;2022-09-17T09:19:16;4.10;;;1.03;;
22435;SDS011;11385;50.822;4.324;2022-09-17T09:21:44;8.25;;;1.35;;
22435;SDS011;11385;50.822;4.324;2022-09-17T09:24:17;6.00;;;1.57;;
22435;SDS011;11385;50.822;4.324;2022-09-17T09:29:36;7.92;;;1.50;;
22435;SDS011;11385;50.822;4.324;2022-09-17T09:35:02;5.60;;;1.50;;
22435;SDS011;11385;50.822;4.324;2022-09-17T09:37:45;9.00;;;1.27;;
22435;SDS011;11385;50.822;4.324;2022-09-17T09:40:21;3.72;;;0.90;;
22435;SDS011;11385;50.822;4.324;2022-09-17T09:42:52;7.75;;;1.30;;
22435;SDS011;11385;50.822;4.324;2022-09-17T09:48:12;5.53;;;1.15;;
22435;SDS011;11385;50.822;4.324;2022-09-17T09:50:46;6.37;;;1.20;;
22435;SDS011;11385;50.822;4.324;2022-09-17T09:53:26;6.33;;;1.00;;
22435;SDS011;11385;50.822;4.324;2022-09-17T09:55:57;6.45;;;1.30;;
22435;SDS011;11385;50.822;4.324;2022-09-17T09:58:43;6.55;;;1.10;;
22435;SDS011;11385;50.822;4.324;2022-09-17T10:01:13;6.83;;;1.02;;
22435;SDS011;11385;50.822;4.324;2022-09-17T10:03:44;7.53;;;1.62;;
22435;SDS011;11385;50.822;4.324;2022-09-17T10:06:12;5.80;;;1.12;;
22435;SDS011;11385;50.822;4.324;2022-09-17T10:08:42;5.78;;;0.90;;
22435;SDS011;11385;50.822;4.324;2022-09-17T10:11:32;7.75;;;1.02;;
22435;SDS011;11385;50.822;4.324;2022-09-17T10:16:37;2.90;;;0.70;;
22435;SDS011;11385;50.822;4.324;2022-09-17T10:21:49;3.72;;;0.68;;
22435;SDS011;11385;50.822;4.324;2022-09-17T10:24:23;3.40;;;0.85;;
22435;SDS011;11385;50.822;4.324;2022-09-17T10:26:59;6.40;;;0.85;;
22435;SDS011;11385;50.822;4.324;2022-09-17T10:29:26;3.45;;;0.65;;
22435;SDS011;11385;50.822;4.324;2022-09-17T10:31:53;5.00;;;0.90;;
22435;SDS011;11385;50.822;4.324;2022-09-17T10:34:26;5.37;;;1.20;;
22435;SDS011;11385;50.822;4.324;2022-09-17T10:36:55;4.90;;;0.80;;
22435;SDS011;11385;50.822;4.324;2022-09-17T10:42:14;4.35;;;0.80;;
22435;SDS011;11385;50.822;4.324;2022-09-17T10:47:21;4.15;;;1.02;;
22435;SDS011;11385;50.822;4.324;2022-09-17T10:49:58;3.98;;;0.60;;
22435;SDS011;11385;50.822;4.324;2022-09-17T10:52:30;4.22;;;0.80;;
22435;SDS011;11385;50.822;4.324;2022-09-17T10:55:35;3.15;;;0.68;;
22435;SDS011;11385;50.822;4.324;2022-09-17T11:03:47;7.62;;;1.22;;
22435;SDS011;11385;50.822;4.324;2022-09-17T11:06:23;4.72;;;1.05;;
22435;SDS011;11385;50.822;4.324;2022-09-17T11:09:10;5.20;;;1.05;;
22435;SDS011;11385;50.822;4.324;2022-09-17T11:12:00;5.25;;;1.17;;
22435;SDS011;11385;50.822;4.324;2022-09-17T11:14:49;4.92;;;0.78;;
22435;SDS011;11385;50.822;4.324;2022-09-17T11:20:31;6.25;;;1.10;;
22435;SDS011;11385;50.822;4.324;2022-09-17T11:25:54;5.05;;;0.90;;
22435;SDS011;11385;50.822;4.324;2022-09-17T11:33:57;5.25;;;1.10;;
22435;SDS011;11385;50.822;4.324;2022-09-17T11:36:45;4.55;;;1.07;;
22435;SDS011;11385;50.822;4.324;2022-09-17T11:39:20;5.42;;;0.93;;
22435;SDS011;11385;50.822;4.324;2022-09-17T11:41:50;5.58;;;1.20;;
22435;SDS011;11385;50.822;4.324;2022-09-17T11:44:21;4.47;;;1.10;;
22435;SDS011;11385;50.822;4.324;2022-09-17T11:46:56;6.22;;;1.37;;
22435;SDS011;11385;50.822;4.324;2022-09-17T11:49:29;4.53;;;1.65;;
22435;SDS011;11385;50.822;4.324;2022-09-17T11:52:05;9.78;;;1.60;;
22435;SDS011;11385;50.822;4.324;2022-09-17T11:59:39;9.18;;;1.50;;
22435;SDS011;11385;50.822;4.324;2022-09-17T12:02:22;6.22;;;1.22;;
22435;SDS011;11385;50.822;4.324;2022-09-17T12:04:56;9.13;;;1.98;;
22435;SDS011;11385;50.822;4.324;2022-09-17T12:07:35;5.75;;;1.20;;
22435;SDS011;11385;50.822;4.324;2022-09-17T12:12:49;7.42;;;1.40;;
22435;SDS011;11385;50.822;4.324;2022-09-17T12:15:21;6.22;;;1.75;;
22435;SDS011;11385;50.822;4.324;2022-09-17T12:17:53;10.60;;;1.22;;
22435;SDS011;11385;50.822;4.324;2022-09-17T12:20:24;7.03;;;2.10;;
22435;SDS011;11385;50.822;4.324;2022-09-17T12:22:55;7.92;;;1.32;;
22435;SDS011;11385;50.822;4.324;2022-09-17T12:25:25;8.58;;;1.45;;
22435;SDS011;11385;50.822;4.324;2022-09-17T12:27:58;12.82;;;1.92;;
22435;SDS011;11385;50.822;4.324;2022-09-17T12:30:28;9.90;;;2.22;;
22435;SDS011;11385;50.822;4.324;2022-09-17T12:41:02;7.70;;;1.92;;
22435;SDS011;11385;50.822;4.324;2022-09-17T12:44:06;15.72;;;2.40;;
22435;SDS011;11385;50.822;4.324;2022-09-17T12:46:44;11.15;;;1.92;;
22435;SDS011;11385;50.822;4.324;2022-09-17T12:49:29;8.93;;;1.57;;
22435;SDS011;11385;50.822;4.324;2022-09-17T12:52:03;11.57;;;1.37;;
22435;SDS011;11385;50.822;4.324;2022-09-17T12:54:40;9.55;;;1.80;;
22435;SDS011;11385;50.822;4.324;2022-09-17T12:57:31;10.53;;;2.35;;
22435;SDS011;11385;50.822;4.324;2022-09-17T13:00:09;13.53;;;2.27;;
22435;SDS011;11385;50.822;4.324;2022-09-17T13:02:40;10.25;;;1.90;;
22435;SDS011;11385;50.822;4.324;2022-09-17T13:08:46;10.05;;;2.27;;
22435;SDS011;11385;50.822;4.324;2022-09-17T13:11:56;8.10;;;1.67;;
22435;SDS011;11385;50.822;4.324;2022-09-17T13:14:27;10.20;;;2.22;;
22435;SDS011;11385;50.822;4.324;2022-09-17T13:17:01;10.05;;;1.60;;
22435;SDS011;11385;50.822;4.324;2022-09-17T13:19:38;6.12;;;1.42;;
22435;SDS011;11385;50.822;4.324;2022-09-17T13:22:13;10.82;;;1.50;;
22435;SDS011;11385;50.822;4.324;2022-09-17T13:24:43;12.50;;;1.90;;
22435;SDS011;11385;50.822;4.324;2022-09-17T13:27:20;7.65;;;1.70;;
22435;SDS011;11385;50.822;4.324;2022-09-17T13:29:56;5.72;;;1.35;;
22435;SDS011;11385;50.822;4.324;2022-09-17T13:35:45;13.50;;;2.85;;
22435;SDS011;11385;50.822;4.324;2022-09-17T13:38:13;11.45;;;2.27;;
22435;SDS011;11385;50.822;4.324;2022-09-17T13:40:41;12.95;;;2.52;;
22435;SDS011;11385;50.822;4.324;2022-09-17T13:43:09;13.80;;;2.77;;
22435;SDS011;11385;50.822;4.324;2022-09-17T13:48:18;10.60;;;1.62;;
22435;SDS011;11385;50.822;4.324;2022-09-17T13:50:47;10.72;;;1.90;;
22435;SDS011;11385;50.822;4.324;2022-09-17T13:53:16;8.30;;;1.70;;
22435;SDS011;11385;50.822;4.324;2022-09-17T13:55:49;7.67;;;1.15;;
22435;SDS011;11385;50.822;4.324;2022-09-17T13:58:23;6.47;;;1.30;;
22435;SDS011;11385;50.822;4.324;2022-09-17T14:00:56;8.43;;;1.17;;
22435;SDS011;11385;50.822;4.324;2022-09-17T14:11:51;7.83;;;1.55;;
22435;SDS011;11385;50.822;4.324;2022-09-17T14:16:59;7.83;;;1.30;;
22435;SDS011;11385;50.822;4.324;2022-09-17T14:19:28;6.90;;;1.65;;
22435;SDS011;11385;50.822;4.324;2022-09-17T14:22:07;7.28;;;1.30;;
22435;SDS011;11385;50.822;4.324;2022-09-17T14:24:46;5.10;;;1.05;;
22435;SDS011;11385;50.822;4.324;2022-09-17T14:30:19;8.38;;;1.70;;
22435;SDS011;11385;50.822;4.324;2022-09-17T14:32:53;8.40;;;1.30;;
22435;SDS011;11385;50.822;4.324;2022-09-17T14:35:43;7.53;;;1.05;;
22435;SDS011;11385;50.822;4.324;2022-09-17T14:38:14;9.15;;;1.32;;
22435;SDS011;11385;50.822;4.324;2022-09-17T14:40:49;5.03;;;0.90;;
22435;SDS011;11385;50.822;4.324;2022-09-17T14:43:37;3.60;;;0.60;;
22435;SDS011;11385;50.822;4.324;2022-09-17T14:45:54;3.22;;;0.68;;
22435;SDS011;11385;50.822;4.324;2022-09-17T14:48:27;4.47;;;0.95;;
22435;SDS011;11385;50.822;4.324;2022-09-17T14:51:31;4.65;;;1.35;;
22435;SDS011;11385;50.822;4.324;2022-09-17T14:56:44;8.05;;;1.35;;
22435;SDS011;11385;50.822;4.324;2022-09-17T14:59:19;4.50;;;1.20;;
22435;SDS011;11385;50.822;4.324;2022-09-17T15:01:53;6.08;;;1.22;;
22435;SDS011;11385;50.822;4.324;2022-09-17T15:04:21;6.72;;;1.50;;
22435;SDS011;11385;50.822;4.324;2022-09-17T15:06:50;10.28;;;1.40;;
22435;SDS011;11385;50.822;4.324;2022-09-17T15:09:20;5.50;;;1.40;;
22435;SDS011;11385;50.822;4.324;2022-09-17T15:11:51;5.25;;;1.30;;
22435;SDS011;11385;50.822;4.324;2022-09-17T15:14:21;8.08;;;2.10;;
22435;SDS011;11385;50.822;4.324;2022-09-17T15:16:51;7.20;;;1.57;;
22435;SDS011;11385;50.822;4.324;2022-09-17T15:19:22;8.15;;;1.40;;
22435;SDS011;11385;50.822;4.324;2022-09-17T15:21:57;7.65;;;1.45;;
22435;SDS011;11385;50.822;4.324;2022-09-17T15:24:31;7.60;;;1.60;;
22435;SDS011;11385;50.822;4.324;2022-09-17T15:27:13;4.47;;;0.90;;
22435;SDS011;11385;50.822;4.324;2022-09-17T15:30:04;5.42;;;1.55;;
22435;SDS011;11385;50.822;4.324;2022-09-17T15:32:34;5.55;;;1.20;;
22435;SDS011;11385;50.822;4.324;2022-09-17T15:37:47;6.62;;;1.25;;
22435;SDS011;11385;50.822;4.324;2022-09-17T15:40:26;3.80;;;0.90;;
22435;SDS011;11385;50.822;4.324;2022-09-17T15:43:00;5.33;;;0.88;;
22435;SDS011;11385;50.822;4.324;2022-09-17T15:45:33;7.62;;;1.45;;
22435;SDS011;11385;50.822;4.324;2022-09-17T15:48:02;4.97;;;1.30;;
22435;SDS011;11385;50.822;4.324;2022-09-17T15:50:32;6.92;;;1.02;;
22435;SDS011;11385;50.822;4.324;2022-09-17T15:53:13;4.92;;;1.17;;
22435;SDS011;11385;50.822;4.324;2022-09-17T15:58:30;5.10;;;0.97;;
22435;SDS011;11385;50.822;4.324;2022-09-17T16:04:06;5.58;;;1.00;;
22435;SDS011;11385;50.822;4.324;2022-09-17T16:06:36;5.55;;;0.75;;
22435;SDS011;11385;50.822;4.324;2022-09-17T16:09:12;3.67;;;0.80;;
22435;SDS011;11385;50.822;4.324;2022-09-17T16:11:36;4.90;;;0.82;;
22435;SDS011;11385;50.822;4.324;2022-09-17T16:14:04;5.80;;;0.95;;
22435;SDS011;11385;50.822;4.324;2022-09-17T16:16:33;4.50;;;0.70;;
22435;SDS011;11385;50.822;4.324;2022-09-17T16:19:01;4.55;;;1.15;;
22435;SDS011;11385;50.822;4.324;2022-09-17T16:21:30;5.25;;;1.10;;
22435;SDS011;11385;50.822;4.324;2022-09-17T16:23:57;4.85;;;1.27;;
22435;SDS011;11385;50.822;4.324;2022-09-17T16:26:26;3.00;;;0.95;;
22435;SDS011;11385;50.822;4.324;2022-09-17T16:28:55;3.45;;;0.70;;
22435;SDS011;11385;50.822;4.324;2022-09-17T16:31:25;4.57;;;1.23;;
22435;SDS011;11385;50.822;4.324;2022-09-17T16:33:52;4.97;;;1.12;;
22435;SDS011;11385;50.822;4.324;2022-09-17T16:36:19;5.75;;;1.07;;
22435;SDS011;11385;50.822;4.324;2022-09-17T16:38:46;5.60;;;0.95;;
22435;SDS011;11385;50.822;4.324;2022-09-17T16:41:13;5.17;;;1.00;;
22435;SDS011;11385;50.822;4.324;2022-09-17T16:43:39;3.20;;;0.60;;
22435;SDS011;11385;50.822;4.324;2022-09-17T16:46:07;5.78;;;1.15;;
22435;SDS011;11385;50.822;4.324;2022-09-17T16:48:35;4.80;;;1.10;;
22435;SDS011;11385;50.822;4.324;2022-09-17T16:51:06;3.42;;;1.35;;
22435;SDS011;11385;50.822;4.324;2022-09-17T16:53:34;6.80;;;1.72;;
22435;SDS011;11385;50.822;4.324;2022-09-17T16:56:04;5.72;;;1.25;;
22435;SDS011;11385;50.822;4.324;2022-09-17T16:58:33;6.60;;;1.25;;